createdAt,value
2016-02-28T12:31:11.878Z,1022.22
2016-02-28T12:32:11.818Z,1022.22
2016-02-28T12:33:11.805Z,1022.22
2016-02-28T12:34:11.791Z,1022.21
2016-02-28T12:35:11.794Z,1022.2
2016-02-28T12:36:11.797Z,1022.19
2016-02-28T12:37:11.785Z,1022.22
2016-02-28T12:38:11.787Z,1022.22
2016-02-28T12:39:11.774Z,1022.22
2016-02-28T12:40:11.777Z,1022.15
2016-02-28T12:41:11.779Z,1022.18
2016-02-28T12:42:11.766Z,1022.23
2016-02-28T12:43:11.769Z,1022.19
2016-02-28T12:44:11.771Z,1022.22
2016-02-28T12:45:11.759Z,1022.25
2016-02-28T12:46:11.761Z,1022.29
2016-02-28T12:47:11.764Z,1022.24
2016-02-28T12:48:11.767Z,1022.24
2016-02-28T12:49:11.770Z,1022.21
2016-02-28T12:50:11.757Z,1022.24
2016-02-28T12:51:11.759Z,1022.3
2016-02-28T12:52:11.762Z,1022.24
2016-02-28T12:53:11.765Z,1022.17
2016-02-28T12:54:11.768Z,1022.23
2016-02-28T12:55:11.770Z,1022.18
2016-02-28T12:56:11.757Z,1022.15
2016-02-28T12:57:11.760Z,1022.11
2016-02-28T12:58:11.763Z,1022.09
2016-02-28T12:59:11.766Z,1022.05
2016-02-28T13:00:11.753Z,1022.07
2016-02-28T13:01:11.755Z,1022.03
2016-02-28T13:02:11.758Z,1022.07
2016-02-28T13:03:11.760Z,1022.09
2016-02-28T13:04:11.763Z,1022.09
2016-02-28T13:05:11.766Z,1022.02
2016-02-28T13:06:11.756Z,1022.07
2016-02-28T13:07:11.758Z,1022.05
2016-02-28T13:08:11.750Z,1022.05
2016-02-28T13:09:11.752Z,1022.08
2016-02-28T13:10:11.755Z,1022.06
2016-02-28T13:11:11.758Z,1022.01
2016-02-28T13:12:11.761Z,1022.01
2016-02-28T13:13:11.748Z,1022.07
2016-02-28T13:14:11.751Z,1022.06
2016-02-28T13:15:11.753Z,1022.04
2016-02-28T13:16:11.740Z,1022.06
2016-02-28T13:17:11.744Z,1022.06
2016-02-28T13:18:11.731Z,1022.12
2016-02-28T13:19:11.733Z,1022.06
2016-02-28T13:20:11.720Z,1022.09
2016-02-28T13:21:11.722Z,1022.07
2016-02-28T13:22:11.710Z,1022.07
2016-02-28T13:23:11.713Z,1022.12
2016-02-28T13:24:11.700Z,1022.02
2016-02-28T13:25:11.687Z,1022.1
2016-02-28T13:26:11.689Z,1022.07
2016-02-28T13:27:11.677Z,1022.05
2016-02-28T13:28:11.664Z,1022.06
2016-02-28T13:29:11.666Z,1022.03
2016-02-28T13:30:11.653Z,1022.02
2016-02-28T13:31:11.640Z,1022.07
2016-02-28T13:32:11.643Z,1022.15
2016-02-28T13:33:11.630Z,1022.1
2016-02-28T13:34:11.633Z,1022.06
2016-02-28T13:35:11.620Z,1022.05
2016-02-28T13:36:11.607Z,1022.08
2016-02-28T13:37:11.594Z,1022.09
2016-02-28T13:38:11.597Z,1022.07
2016-02-28T13:39:11.600Z,1022.03
2016-02-28T13:40:11.586Z,1022.09
2016-02-28T13:41:11.574Z,1022.05
2016-02-28T13:42:11.576Z,1022.1
2016-02-28T13:43:11.563Z,1022.12
2016-02-28T13:44:11.551Z,1022.14
2016-02-28T13:45:11.538Z,1022.15
2016-02-28T13:46:11.540Z,1022.15
2016-02-28T13:47:11.527Z,1022.14
2016-02-28T13:48:11.529Z,1022.13
2016-02-28T13:49:11.517Z,1022.17
2016-02-28T13:50:11.504Z,1022.2
2016-02-28T13:51:11.491Z,1022.22
2016-02-28T13:52:11.494Z,1022.17
2016-02-28T13:53:11.481Z,1022.18
2016-02-28T13:54:11.484Z,1022.23
2016-02-28T13:55:11.470Z,1022.32
2016-02-28T13:56:11.458Z,1022.31
2016-02-28T13:57:11.461Z,1022.27
2016-02-28T13:58:11.448Z,1022.28
2016-02-28T13:59:11.450Z,1022.22
2016-02-28T14:00:11.437Z,1022.25
2016-02-28T14:01:11.424Z,1022.18
2016-02-28T14:02:11.427Z,1022.17
2016-02-28T14:03:11.414Z,1022.19
2016-02-28T14:04:11.401Z,1022.18
2016-02-28T14:05:11.403Z,1022.25
2016-02-28T14:06:11.391Z,1022.21
2016-02-28T14:07:11.377Z,1022.19
2016-02-28T14:08:11.381Z,1022.36
2016-02-28T14:09:11.368Z,1022.33
2016-02-28T14:10:11.371Z,1022.33
2016-02-28T14:11:11.357Z,1022.27
2016-02-28T14:12:11.344Z,1022.27
2016-02-28T14:13:11.347Z,1022.27
2016-02-28T14:14:11.334Z,1022.26
2016-02-28T14:15:11.321Z,1022.22
2016-02-28T14:16:11.324Z,1022.19
2016-02-28T14:17:11.310Z,1022.25
2016-02-28T14:18:11.314Z,1022.26
2016-02-28T14:19:11.301Z,1022.29
2016-02-28T14:20:11.288Z,1022.32
2016-02-28T14:21:11.275Z,1022.37
2016-02-28T14:22:11.278Z,1022.25
2016-02-28T14:23:11.281Z,1022.29
2016-02-28T14:24:11.284Z,1022.24
2016-02-28T14:25:11.255Z,1022.46
2016-02-28T14:26:11.242Z,1022.48
2016-02-28T14:27:11.244Z,1022.48
2016-02-28T14:28:11.231Z,1022.38
2016-02-28T14:29:11.234Z,1022.37
2016-02-28T14:30:11.220Z,1022.49
2016-02-28T14:31:11.208Z,1022.49
2016-02-28T14:32:11.773Z,1022.55
2016-02-28T14:33:11.197Z,1022.54
2016-02-28T14:34:11.200Z,1022.51
2016-02-28T14:35:11.188Z,1022.53
2016-02-28T14:36:11.191Z,1022.48
2016-02-28T14:37:11.177Z,1022.54
2016-02-28T14:38:11.164Z,1022.51
2016-02-28T14:39:11.166Z,1022.36
2016-02-28T14:40:11.169Z,1022.53
2016-02-28T14:41:11.158Z,1022.49
2016-02-28T14:42:11.160Z,1022.52
2016-02-28T14:43:11.146Z,1022.5
2016-02-28T14:44:11.133Z,1022.51
2016-02-28T14:45:11.135Z,1022.52
2016-02-28T14:46:11.124Z,1022.49
2016-02-28T14:47:11.127Z,1022.44
2016-02-28T14:48:11.113Z,1022.48
2016-02-28T14:49:11.116Z,1022.43
2016-02-28T14:50:11.103Z,1022.44
2016-02-28T14:51:11.106Z,1022.53
2016-02-28T14:52:11.093Z,1022.57
2016-02-28T14:53:11.096Z,1022.6
2016-02-28T14:54:11.082Z,1022.57
2016-02-28T14:55:11.070Z,1022.64
2016-02-28T14:56:11.056Z,1022.63
2016-02-28T14:57:11.059Z,1022.61
2016-02-28T14:58:11.046Z,1022.63
2016-02-28T14:59:11.049Z,1022.59
2016-02-28T15:00:11.036Z,1022.61
2016-02-28T15:01:11.023Z,1022.61
2016-02-28T15:02:11.025Z,1022.67
2016-02-28T15:03:11.029Z,1022.76
2016-02-28T15:04:11.031Z,1022.75
2016-02-28T15:05:11.003Z,1022.77
2016-02-28T15:06:11.005Z,1022.72
2016-02-28T15:07:10.993Z,1022.68
2016-02-28T15:08:10.994Z,1022.67
2016-02-28T15:09:10.983Z,1022.68
2016-02-28T15:10:10.985Z,1022.65
2016-02-28T15:11:10.972Z,1022.62
2016-02-28T15:12:10.974Z,1022.65
2016-02-28T15:13:10.961Z,1022.69
2016-02-28T15:14:10.964Z,1022.71
2016-02-28T15:15:10.952Z,1022.66
2016-02-28T15:16:10.954Z,1022.64
2016-02-28T15:17:10.941Z,1022.68
2016-02-28T15:18:10.943Z,1022.75
2016-02-28T15:19:10.932Z,1022.71
2016-02-28T15:20:10.934Z,1022.78
2016-02-28T15:21:10.921Z,1022.76
2016-02-28T15:22:10.923Z,1022.81
2016-02-28T15:23:10.910Z,1022.82
2016-02-28T15:24:10.929Z,1022.85
2016-02-28T15:25:10.901Z,1022.87
2016-02-28T15:26:10.903Z,1022.81
2016-02-28T15:27:10.890Z,1022.86
2016-02-28T15:28:10.892Z,1022.85
2016-02-28T15:29:10.879Z,1022.84
2016-02-28T15:30:10.867Z,1022.85
2016-02-28T15:31:10.869Z,1022.88
2016-02-28T15:32:10.872Z,1022.88
2016-02-28T15:33:10.859Z,1022.9
2016-02-28T15:34:10.862Z,1022.87
2016-02-28T15:35:10.850Z,1022.87
2016-02-28T15:36:10.852Z,1022.88
2016-02-28T15:37:10.855Z,1022.85
2016-02-28T15:38:10.826Z,1022.85
2016-02-28T15:39:10.828Z,1022.88
2016-02-28T15:40:10.816Z,1022.87
2016-02-28T15:41:10.818Z,1022.84
2016-02-28T15:42:10.805Z,1022.86
2016-02-28T15:43:10.808Z,1022.84
2016-02-28T15:44:10.795Z,1022.86
2016-02-28T15:45:10.797Z,1022.82
2016-02-28T15:46:10.785Z,1022.82
2016-02-28T15:47:10.772Z,1022.81
2016-02-28T15:48:10.774Z,1022.83
2016-02-28T15:49:10.762Z,1022.77
2016-02-28T15:50:10.764Z,1022.83
2016-02-28T15:51:10.751Z,1022.79
2016-02-28T15:52:10.755Z,1022.78
2016-02-28T15:53:10.741Z,1022.8
2016-02-28T15:54:10.743Z,1022.84
2016-02-28T15:55:10.731Z,1022.8
2016-02-28T15:56:10.718Z,1022.82
2016-02-28T15:57:10.721Z,1022.84
2016-02-28T15:58:10.707Z,1022.82
2016-02-28T15:59:10.695Z,1022.8
2016-02-28T16:00:10.698Z,1022.83
2016-02-28T16:01:10.685Z,1022.84
2016-02-28T16:02:10.687Z,1022.83
2016-02-28T16:03:10.675Z,1022.88
2016-02-28T16:04:10.678Z,1022.81
2016-02-28T16:05:10.664Z,1022.82
2016-02-28T16:06:10.666Z,1022.81
2016-02-28T16:07:10.654Z,1022.83
2016-02-28T16:08:10.656Z,1022.77
2016-02-28T16:09:10.644Z,1022.8
2016-02-28T16:10:10.631Z,1022.8
2016-02-28T16:11:10.633Z,1022.86
2016-02-28T16:12:10.620Z,1022.85
2016-02-28T16:13:10.623Z,1022.81
2016-02-28T16:14:10.611Z,1022.81
2016-02-28T16:15:10.613Z,1022.89
2016-02-28T16:16:10.600Z,1022.88
2016-02-28T16:17:10.602Z,1022.89
2016-02-28T16:18:10.590Z,1022.9
2016-02-28T16:19:10.577Z,1022.9
2016-02-28T16:20:10.580Z,1022.88
2016-02-28T16:21:10.566Z,1022.85
2016-02-28T16:22:10.569Z,1022.83
2016-02-28T16:23:10.556Z,1022.89
2016-02-28T16:24:10.559Z,1022.88
2016-02-28T16:25:10.546Z,1022.88
2016-02-28T16:26:10.549Z,1022.9
2016-02-28T16:27:10.535Z,1022.9
2016-02-28T16:28:10.523Z,1022.94
2016-02-28T16:29:10.525Z,1022.9
2016-02-28T16:30:10.512Z,1022.94
2016-02-28T16:31:10.515Z,1022.97
2016-02-28T16:32:10.518Z,1022.98
2016-02-28T16:33:10.520Z,1022.95
2016-02-28T16:34:10.492Z,1022.93
2016-02-28T16:35:10.479Z,1022.97
2016-02-28T16:36:10.481Z,1022.94
2016-02-28T16:37:10.469Z,1022.97
2016-02-28T16:38:10.472Z,1022.95
2016-02-28T16:39:10.458Z,1022.95
2016-02-28T16:40:10.446Z,1022.94
2016-02-28T16:41:10.433Z,1022.9
2016-02-28T16:42:10.419Z,1022.95
2016-02-28T16:43:10.407Z,1022.89
2016-02-28T16:44:10.410Z,1022.94
2016-02-28T16:45:10.397Z,1022.91
2016-02-28T16:46:10.384Z,1022.95
2016-02-28T16:47:10.371Z,1022.93
2016-02-28T16:48:10.357Z,1022.95
2016-02-28T16:49:10.344Z,1022.93
2016-02-28T16:50:10.333Z,1022.94
2016-02-28T16:51:10.335Z,1022.98
2016-02-28T16:52:10.322Z,1022.96
2016-02-28T16:53:10.325Z,1022.98
2016-02-28T16:54:10.295Z,1022.98
2016-02-28T16:55:10.276Z,1022.99
2016-02-28T16:56:10.255Z,1023
2016-02-28T16:57:10.233Z,1023.03
2016-02-28T16:58:10.211Z,1023.02
2016-02-28T16:59:10.205Z,1023.06
2016-02-28T17:00:10.174Z,1023.02
2016-02-28T17:01:10.173Z,1023.11
2016-02-28T17:02:10.158Z,1023.13
2016-02-28T17:03:10.141Z,1023.1
2016-02-28T17:04:10.140Z,1023.11
2016-02-28T17:05:10.112Z,1023.16
2016-02-28T17:06:10.102Z,1023.17
2016-02-28T17:07:10.087Z,1023.16
2016-02-28T17:08:10.074Z,1023.14
2016-02-28T17:09:10.060Z,1023.16
2016-02-28T17:10:10.048Z,1023.2
2016-02-28T17:11:10.050Z,1023.19
2016-02-28T17:12:10.036Z,1023.25
2016-02-28T17:13:10.022Z,1023.3
2016-02-28T17:14:10.009Z,1023.28
2016-02-28T17:15:10.026Z,1023.33
2016-02-28T17:16:09.982Z,1023.32
2016-02-28T17:17:09.984Z,1023.3
2016-02-28T17:18:09.987Z,1023.32
2016-02-28T17:19:09.958Z,1023.34
2016-02-28T17:20:09.945Z,1023.37
2016-02-28T17:21:09.933Z,1023.37
2016-02-28T17:22:09.919Z,1023.39
2016-02-28T17:23:09.907Z,1023.37
2016-02-28T17:24:09.893Z,1023.38
2016-02-28T17:25:09.896Z,1023.39
2016-02-28T17:26:09.883Z,1023.41
2016-02-28T17:27:09.871Z,1023.44
2016-02-28T17:28:09.857Z,1023.41
2016-02-28T17:29:09.845Z,1023.46
2016-02-28T17:30:09.847Z,1023.47
2016-02-28T17:31:09.834Z,1023.5
2016-02-28T17:32:09.821Z,1023.52
2016-02-28T17:33:09.809Z,1023.51
2016-02-28T17:34:09.795Z,1023.54
2016-02-28T17:35:09.782Z,1023.55
2016-02-28T17:36:09.769Z,1023.63
2016-02-28T17:37:09.772Z,1023.65
2016-02-28T17:38:09.759Z,1023.64
2016-02-28T17:39:09.747Z,1023.65
2016-02-28T17:40:09.733Z,1023.67
2016-02-28T17:41:09.736Z,1023.6
2016-02-28T17:42:09.722Z,1023.65
2016-02-28T17:43:09.710Z,1023.66
2016-02-28T17:44:09.697Z,1023.64
2016-02-28T17:45:09.683Z,1023.68
2016-02-28T17:46:09.671Z,1023.7
2016-02-28T17:47:09.674Z,1023.79
2016-02-28T17:48:09.661Z,1023.73
2016-02-28T17:49:09.633Z,1023.69
2016-02-28T17:50:09.635Z,1023.73
2016-02-28T17:51:09.622Z,1023.74
2016-02-28T17:52:09.610Z,1023.73
2016-02-28T17:53:09.597Z,1023.74
2016-02-28T17:54:09.599Z,1023.73
2016-02-28T17:55:09.570Z,1023.77
2016-02-28T17:56:09.557Z,1023.74
2016-02-28T17:57:09.560Z,1023.78
2016-02-28T17:58:09.548Z,1023.79
2016-02-28T17:59:09.535Z,1023.82
2016-02-28T18:00:09.521Z,1023.8
2016-02-28T18:01:09.509Z,1023.84
2016-02-28T18:02:09.511Z,1023.86
2016-02-28T18:19:55.825Z,1024.18
2016-02-28T18:20:55.812Z,1024.19
2016-02-28T18:21:55.784Z,1024.19
2016-02-28T18:22:55.771Z,1024.24
2016-02-28T18:23:55.758Z,1024.23
2016-02-28T18:24:55.745Z,1024.29
2016-02-28T18:25:55.732Z,1024.3
2016-02-28T18:26:55.718Z,1024.3
2016-02-28T18:27:55.690Z,1024.33
2016-02-28T18:28:55.694Z,1024.35
2016-02-28T18:29:55.680Z,1024.37
2016-02-28T18:30:55.652Z,1024.39
2016-02-28T18:31:55.640Z,1024.41
2016-02-28T18:32:55.625Z,1024.41
2016-02-28T18:33:55.613Z,1024.43
2016-02-28T18:34:55.601Z,1024.41
2016-02-28T18:49:55.405Z,1024.64
2016-02-28T18:50:55.394Z,1024.63
2016-02-28T18:51:55.364Z,1024.64
2016-02-28T18:52:55.352Z,1024.66
2016-02-28T18:53:55.338Z,1024.7
2016-02-28T18:54:55.326Z,1024.68
2016-02-28T18:55:55.328Z,1024.66
2016-02-28T18:56:55.300Z,1024.72
2016-02-28T18:57:55.287Z,1024.7
2016-02-28T18:58:55.274Z,1024.68
2016-02-28T18:59:55.260Z,1024.71
2016-02-28T19:00:55.248Z,1024.71
2016-02-28T19:01:55.220Z,1024.73
2016-02-28T19:02:55.207Z,1024.74
2016-02-28T19:03:55.209Z,1024.73
2016-02-28T19:04:55.181Z,1024.74
2016-02-28T19:20:43.130Z,1024.87
2016-02-28T19:21:43.117Z,1024.9
2016-02-28T19:22:43.105Z,1024.9
2016-02-28T19:23:43.075Z,1024.91
2016-02-28T19:24:43.062Z,1024.89
2016-02-28T19:25:43.049Z,1024.93
2016-02-28T19:26:43.037Z,1024.95
2016-02-28T19:27:43.008Z,1024.98
2016-02-28T19:28:43.010Z,1024.95
2016-02-28T19:29:42.979Z,1024.99
2016-02-28T19:30:42.966Z,1024.98
2016-02-28T19:31:42.954Z,1025.02
2016-02-28T19:32:42.941Z,1025.04
2016-02-28T19:33:42.928Z,1025.04
2016-02-28T19:34:42.915Z,1025.04
2016-02-28T19:35:42.886Z,1025.05
2016-02-28T19:51:12.602Z,1025.29
2016-02-28T19:52:12.589Z,1025.31
2016-02-28T19:53:12.575Z,1025.3
2016-02-28T19:54:12.547Z,1025.33
2016-02-28T19:55:12.533Z,1025.35
2016-02-28T19:56:12.521Z,1025.36
2016-02-28T19:57:12.508Z,1025.38
2016-02-28T19:58:12.480Z,1025.32
2016-02-28T19:59:12.466Z,1025.35
2016-02-28T20:00:12.454Z,1025.36
2016-02-28T20:01:12.441Z,1025.38
2016-02-28T20:02:12.443Z,1025.36
2016-02-28T20:03:12.415Z,1025.4
2016-02-28T20:04:12.418Z,1025.38
2016-02-28T20:05:12.404Z,1025.35
2016-02-28T20:20:19.262Z,1025.61
2016-02-28T20:21:19.248Z,1025.62
2016-02-28T20:22:19.235Z,1025.61
2016-02-28T20:23:19.207Z,1025.6
2016-02-28T20:24:19.178Z,1025.56
2016-02-28T20:25:19.181Z,1025.61
2016-02-28T20:26:19.168Z,1025.6
2016-02-28T20:27:19.156Z,1025.62
2016-02-28T20:28:19.126Z,1025.6
2016-02-28T20:29:19.114Z,1025.59
2016-02-28T20:30:19.132Z,1025.62
2016-02-28T20:31:19.087Z,1025.66
2016-02-28T20:32:19.075Z,1025.65
2016-02-28T20:33:19.061Z,1025.65
2016-02-28T20:34:19.049Z,1025.68
2016-02-28T20:35:19.036Z,1025.65
2016-02-28T20:52:19.178Z,1025.87
2016-02-28T20:53:19.149Z,1025.88
2016-02-28T20:54:19.136Z,1025.87
2016-02-28T20:55:19.123Z,1025.88
2016-02-28T20:56:19.110Z,1025.92
2016-02-28T20:57:19.097Z,1025.87
2016-02-28T20:58:19.084Z,1025.88
2016-02-28T20:59:19.056Z,1025.86
2016-02-28T21:00:19.042Z,1025.86
2016-02-28T21:01:19.031Z,1025.89
2016-02-28T21:02:19.017Z,1025.88
2016-02-28T21:03:19.003Z,1025.84
2016-02-28T21:04:18.991Z,1025.87
2016-02-28T21:05:18.978Z,1025.86
2016-02-28T21:21:39.990Z,1025.94
2016-02-28T21:22:39.977Z,1025.99
2016-02-28T21:23:39.949Z,1026.04
2016-02-28T21:24:39.935Z,1026.08
2016-02-28T21:25:39.922Z,1026.1
2016-02-28T21:26:39.910Z,1026.1
2016-02-28T21:27:39.897Z,1026.13
2016-02-28T21:28:39.884Z,1026.12
2016-02-28T21:29:39.886Z,1026.14
2016-02-28T21:30:39.858Z,1026.1
2016-02-28T21:31:39.844Z,1026.07
2016-02-28T21:32:39.832Z,1026.07
2016-02-28T21:33:39.819Z,1026.02
2016-02-28T21:34:39.805Z,1026.05
2016-02-28T21:35:39.794Z,1026.02
2016-02-28T21:50:55.976Z,1025.93
2016-02-28T21:51:55.964Z,1025.92
2016-02-28T21:52:55.951Z,1025.92
2016-02-28T21:53:55.938Z,1025.93
2016-02-28T21:54:55.909Z,1025.92
2016-02-28T21:55:55.896Z,1025.86
2016-02-28T21:56:55.884Z,1025.9
2016-02-28T21:57:55.871Z,1025.87
2016-02-28T21:58:55.858Z,1025.89
2016-02-28T21:59:55.845Z,1025.86
2016-02-28T22:00:55.832Z,1025.89
2016-02-28T22:01:55.819Z,1025.91
2016-02-28T22:02:55.806Z,1025.88
2016-02-28T22:03:56.059Z,1025.91
2016-02-28T22:04:55.781Z,1025.95
2016-02-28T22:21:45.527Z,1025.8
2016-02-28T22:22:45.498Z,1025.8
2016-02-28T22:23:45.485Z,1025.8
2016-02-28T22:24:45.472Z,1025.79
2016-02-28T22:25:45.459Z,1025.8
2016-02-28T22:26:45.431Z,1025.78
2016-02-28T22:27:45.434Z,1025.78
2016-02-28T22:28:45.404Z,1025.8
2016-02-28T22:29:45.392Z,1025.78
2016-02-28T22:30:45.379Z,1025.81
2016-02-28T22:31:45.366Z,1025.76
2016-02-28T22:32:45.353Z,1025.73
2016-02-28T22:33:45.325Z,1025.7
2016-02-28T22:34:45.311Z,1025.72
2016-02-28T22:49:50.508Z,1025.66
2016-02-28T22:50:50.480Z,1025.64
2016-02-28T22:51:50.466Z,1025.66
2016-02-28T22:52:50.438Z,1025.69
2016-02-28T22:53:50.424Z,1025.68
2016-02-28T22:54:50.413Z,1025.69
2016-02-28T22:55:50.399Z,1025.73
2016-02-28T22:56:50.387Z,1025.72
2016-02-28T22:57:50.357Z,1025.73
2016-02-28T22:58:50.345Z,1025.76
2016-02-28T22:59:50.331Z,1025.74
2016-02-28T23:00:50.318Z,1025.76
2016-02-28T23:01:50.306Z,1025.73
2016-02-28T23:02:50.293Z,1025.74
2016-02-28T23:03:50.265Z,1025.72
2016-02-28T23:20:00.560Z,1025.71
2016-02-28T23:21:00.532Z,1025.71
2016-02-28T23:22:00.519Z,1025.68
2016-02-28T23:23:00.505Z,1025.68
2016-02-28T23:24:00.477Z,1025.67
2016-02-28T23:25:00.480Z,1025.64
2016-02-28T23:26:00.451Z,1025.61
2016-02-28T23:27:00.437Z,1025.61
2016-02-28T23:28:00.426Z,1025.62
2016-02-28T23:29:00.396Z,1025.6
2016-02-28T23:30:00.384Z,1025.63
2016-02-28T23:31:00.371Z,1025.61
2016-02-28T23:32:00.358Z,1025.62
2016-02-28T23:33:00.329Z,1025.64
2016-02-28T23:34:00.317Z,1025.69
2016-02-28T23:50:13.516Z,1025.76
2016-02-28T23:51:13.503Z,1025.72
2016-02-28T23:52:13.490Z,1025.74
2016-02-28T23:53:13.461Z,1025.76
2016-02-28T23:54:13.449Z,1025.79
2016-02-28T23:55:13.420Z,1025.77
2016-02-28T23:56:13.423Z,1025.79
2016-02-28T23:57:13.394Z,1025.81
2016-02-28T23:58:13.381Z,1025.77
2016-02-28T23:59:13.368Z,1025.82
